createdAt,value
2019-05-12T00:03:19.126Z,90.70
2019-05-12T00:08:23.966Z,92.00
2019-05-12T00:13:28.804Z,91.90
2019-05-12T00:18:33.631Z,92.20
2019-05-12T00:23:58.246Z,92.40
2019-05-12T00:29:02.941Z,92.90
2019-05-12T00:34:07.876Z,93.90
2019-05-12T00:39:12.718Z,94.90
2019-05-12T00:44:18.365Z,94.80
2019-05-12T00:49:23.422Z,94.70
2019-05-12T00:54:28.467Z,94.40
2019-05-12T00:59:33.551Z,95.40
2019-05-12T01:04:38.378Z,95.00
2019-05-12T01:09:43.296Z,94.50
2019-05-12T01:14:48.812Z,95.20
2019-05-12T01:19:54.431Z,94.80
2019-05-12T01:24:59.762Z,94.50
2019-05-12T01:30:05.663Z,95.00
2019-05-12T01:35:10.684Z,95.70
2019-05-12T01:40:18.886Z,95.00
2019-05-12T01:45:23.203Z,94.80
2019-05-12T01:50:28.500Z,94.70
2019-05-12T01:55:33.686Z,94.80
2019-05-12T02:00:39.196Z,96.00
2019-05-12T02:05:49.048Z,95.10
2019-05-12T02:10:55.952Z,95.10
2019-05-12T02:16:00.816Z,95.80
2019-05-12T02:21:05.652Z,96.00
2019-05-12T02:26:10.494Z,96.30
2019-05-12T02:31:15.360Z,96.50
2019-05-12T02:36:20.208Z,97.20
2019-05-12T02:41:25.908Z,97.20
2019-05-12T02:46:34.572Z,96.70
2019-05-12T02:51:37.644Z,96.60
2019-05-12T02:56:44.914Z,96.90
2019-05-12T03:01:55.040Z,97.30
2019-05-12T03:07:05.441Z,97.00
2019-05-12T03:12:06.690Z,97.20
2019-05-12T03:17:11.459Z,97.30
2019-05-12T03:22:16.282Z,97.40
2019-05-12T03:27:21.038Z,97.60
2019-05-12T03:32:27.797Z,97.70
2019-05-12T03:37:35.185Z,97.80
2019-05-12T03:42:38.727Z,97.80
2019-05-12T03:47:45.494Z,97.50
2019-05-12T03:52:49.945Z,97.50
2019-05-12T03:57:55.238Z,97.50
2019-05-12T04:03:00.341Z,97.50
2019-05-12T04:08:06.539Z,97.90
2019-05-12T04:13:14.729Z,97.60
2019-05-12T04:18:18.289Z,97.70
2019-05-12T04:23:24.722Z,98.50
2019-05-12T04:28:29.490Z,98.10
2019-05-12T04:33:34.767Z,98.20
2019-05-12T04:38:39.969Z,98.00
2019-05-12T04:43:44.961Z,97.90
2019-05-12T04:48:49.927Z,98.00
2019-05-12T04:53:55.090Z,98.30
2019-05-12T04:59:00.010Z,98.00
2019-05-12T05:04:05.981Z,97.70
2019-05-12T05:09:10.928Z,97.10
2019-05-12T05:14:16.512Z,97.20
2019-05-12T05:19:24.268Z,97.60
2019-05-12T05:24:28.348Z,97.00
2019-05-12T05:29:33.607Z,96.80
2019-05-12T05:34:39.563Z,97.20
2019-05-12T05:39:49.471Z,97.20
2019-05-12T05:44:50.775Z,97.50
2019-05-12T05:49:55.524Z,96.90
2019-05-12T05:55:05.109Z,97.30
2019-05-12T06:00:17.595Z,97.40
2019-05-12T06:05:14.568Z,97.30
2019-05-12T06:10:19.715Z,97.40
2019-05-12T06:15:24.670Z,97.40
2019-05-12T06:20:29.507Z,97.60
2019-05-12T06:25:45.964Z,97.80
2019-05-12T06:30:44.903Z,98.40
2019-05-12T06:35:48.466Z,98.70
2019-05-12T06:40:54.444Z,99.30
2019-05-12T06:45:59.653Z,99.30
2019-05-12T06:51:09.236Z,98.90
2019-05-12T06:56:15.466Z,99.70
2019-05-12T07:01:19.527Z,99.90
2019-05-12T07:06:24.807Z,99.70
2019-05-12T07:11:41.501Z,99.90
2019-05-12T07:16:36.248Z,99.90
2019-05-12T07:21:41.006Z,99.70
2019-05-12T07:26:48.018Z,99.80
2019-05-12T07:31:53.681Z,99.80
2019-05-12T07:36:59.348Z,99.70
2019-05-12T07:42:06.170Z,99.50
2019-05-12T07:47:11.012Z,99.90
2019-05-12T07:52:15.843Z,99.90
2019-05-12T07:57:20.686Z,99.90
2019-05-12T08:02:31.590Z,99.90
2019-05-12T08:07:33.738Z,99.90
2019-05-12T08:12:38.648Z,99.70
2019-05-12T08:17:44.055Z,99.70
2019-05-12T08:22:49.396Z,99.00
2019-05-12T08:28:04.133Z,98.40
2019-05-12T08:33:07.280Z,99.60
2019-05-12T08:38:07.606Z,98.90
2019-05-12T08:43:14.631Z,98.70
2019-05-12T08:48:21.799Z,98.70
2019-05-12T08:53:26.155Z,98.30
2019-05-12T08:58:46.294Z,98.60
2019-05-12T09:03:37.872Z,99.40
2019-05-12T09:08:49.057Z,99.50
2019-05-12T09:13:52.742Z,99.10
2019-05-12T09:18:56.785Z,99.00
2019-05-12T09:24:04.461Z,99.70
2019-05-12T09:29:09.297Z,99.40
2019-05-12T09:34:16.397Z,99.80
2019-05-12T09:39:20.614Z,98.30
2019-05-12T09:44:30.164Z,98.00
2019-05-12T09:49:38.623Z,97.80
2019-05-12T09:54:40.908Z,97.90
2019-05-12T09:59:45.851Z,97.50
2019-05-12T10:04:58.771Z,97.60
2019-05-12T10:09:59.091Z,97.60
2019-05-12T10:15:06.796Z,96.80
2019-05-12T10:20:13.732Z,96.30
2019-05-12T10:25:23.208Z,97.60
2019-05-12T10:30:25.262Z,96.90
2019-05-12T10:35:30.162Z,97.50
2019-05-12T10:40:34.847Z,96.20
2019-05-12T10:45:39.673Z,97.80
2019-05-12T10:50:44.572Z,97.60
2019-05-12T10:55:49.348Z,97.70
2019-05-12T11:00:58.985Z,97.20
2019-05-12T11:06:02.880Z,97.00
2019-05-12T11:11:07.192Z,96.30
2019-05-12T11:16:14.694Z,96.80
2019-05-12T11:21:18.527Z,96.50
2019-05-12T11:26:23.579Z,96.90
2019-05-12T11:31:28.378Z,97.20
2019-05-12T11:36:34.465Z,97.60
2019-05-12T11:41:39.409Z,96.90
2019-05-12T11:46:44.323Z,97.10
2019-05-12T11:51:49.516Z,97.10
2019-05-12T11:56:54.374Z,97.10
2019-05-12T12:01:59.405Z,97.40
2019-05-12T12:07:04.281Z,96.70
2019-05-12T12:12:09.068Z,96.80
2019-05-12T12:17:13.891Z,97.50
2019-05-12T12:22:20.347Z,97.40
2019-05-12T12:27:25.513Z,98.00
2019-05-12T12:32:30.309Z,98.00
2019-05-12T12:37:35.175Z,98.60
2019-05-12T12:42:46.270Z,98.00
2019-05-12T12:47:49.198Z,98.20
2019-05-12T12:52:53.385Z,98.10
2019-05-12T12:57:58.529Z,97.90
2019-05-12T13:03:03.772Z,97.70
2019-05-12T13:08:08.908Z,98.10
2019-05-12T13:13:14.235Z,98.10
2019-05-12T13:18:28.044Z,98.00
2019-05-12T13:23:36.930Z,97.80
2019-05-12T13:28:34.260Z,98.20
2019-05-12T13:33:39.045Z,98.70
2019-05-12T13:38:44.785Z,98.40
2019-05-12T13:43:54.826Z,98.40
2019-05-12T13:48:59.674Z,98.80
2019-05-12T13:54:03.873Z,98.70
2019-05-12T13:59:12.066Z,98.80
2019-05-12T14:04:15.346Z,99.20
2019-05-12T14:09:20.111Z,99.20
2019-05-12T14:14:25.032Z,99.50
2019-05-12T14:19:30.287Z,99.30
2019-05-12T14:24:41.838Z,99.80
2019-05-12T14:29:44.087Z,99.60
2019-05-12T14:34:51.130Z,99.30
2019-05-12T14:39:55.602Z,99.90
2019-05-12T14:45:00.442Z,99.90
2019-05-12T14:50:06.483Z,99.90
2019-05-12T14:55:13.638Z,99.90
2019-05-12T15:00:21.176Z,99.90
2019-05-12T15:05:27.519Z,99.90
2019-05-12T15:10:31.098Z,99.90
2019-05-12T15:15:35.933Z,99.60
2019-05-12T15:20:41.382Z,99.80
2019-05-12T15:25:47.213Z,99.10
2019-05-12T15:30:53.982Z,98.60
2019-05-12T15:35:58.521Z,98.60
2019-05-12T15:41:04.278Z,98.90
2019-05-12T15:46:09.382Z,98.60
2019-05-12T15:51:14.225Z,98.80
2019-05-12T15:56:22.996Z,98.90
2019-05-12T16:01:25.413Z,99.00
2019-05-12T16:06:30.279Z,98.60
2019-05-12T16:11:35.240Z,98.60
2019-05-12T16:16:42.595Z,98.60
2019-05-12T16:21:46.530Z,98.10
2019-05-12T16:26:53.025Z,98.10
2019-05-12T16:31:57.878Z,98.10
2019-05-12T16:37:04.104Z,98.30
2019-05-12T16:42:10.696Z,97.80
2019-05-12T16:47:23.753Z,97.50
2019-05-12T16:52:25.010Z,97.50
2019-05-12T16:57:29.849Z,97.20
2019-05-12T17:02:41.417Z,97.30
2019-05-12T17:07:50.350Z,97.40
2019-05-12T17:12:54.343Z,97.70
2019-05-12T17:18:01.655Z,97.70
2019-05-12T17:23:06.048Z,97.40
2019-05-12T17:28:13.091Z,98.20
2019-05-12T17:33:22.597Z,98.00
2019-05-12T17:38:25.219Z,97.80
2019-05-12T17:43:30.369Z,97.80
2019-05-12T17:48:37.448Z,97.90
2019-05-12T17:53:43.362Z,97.90
2019-05-12T17:58:48.568Z,97.90
2019-05-12T18:03:53.612Z,98.00
2019-05-12T18:08:58.902Z,98.30
2019-05-12T18:14:07.220Z,98.10
2019-05-12T18:19:15.275Z,98.20
2019-05-12T18:24:18.191Z,97.50
2019-05-12T18:29:23.709Z,97.30
2019-05-12T18:34:29.083Z,97.30
2019-05-12T18:39:35.117Z,97.30
2019-05-12T18:44:39.951Z,97.30
2019-05-12T18:49:47.927Z,96.70
2019-05-12T18:54:56.856Z,96.60
2019-05-12T19:00:04.073Z,97.20
2019-05-12T19:05:06.372Z,97.40
2019-05-12T19:10:11.306Z,97.70
2019-05-12T19:15:21.715Z,98.10
2019-05-12T19:20:24.003Z,98.60
2019-05-12T19:25:30.228Z,98.70
2019-05-12T19:30:36.809Z,99.00
2019-05-12T19:35:42.008Z,99.30
2019-05-12T19:40:55.109Z,99.50
2019-05-12T19:46:02.740Z,99.90
2019-05-12T19:51:10.084Z,99.90
2019-05-12T19:56:06.596Z,99.90
2019-05-12T20:01:14.102Z,99.90
2019-05-12T20:06:19.112Z,99.90
2019-05-12T20:11:26.530Z,99.90
2019-05-12T20:16:30.674Z,99.90
2019-05-12T20:21:35.959Z,99.90
2019-05-12T20:26:40.788Z,99.90
2019-05-12T20:31:48.563Z,99.90
2019-05-12T20:36:53.722Z,99.90
2019-05-12T20:42:00.871Z,99.90
2019-05-12T20:47:06.628Z,99.90
2019-05-12T20:52:14.316Z,99.90
2019-05-12T20:57:18.285Z,99.90
2019-05-12T21:02:23.432Z,99.90
2019-05-12T21:07:28.564Z,99.90
2019-05-12T21:12:33.541Z,99.90
2019-05-12T21:17:42.952Z,99.90
2019-05-12T21:22:44.720Z,99.90
2019-05-12T21:27:53.892Z,99.90
2019-05-12T21:33:01.114Z,99.90
2019-05-12T21:38:04.115Z,99.90
2019-05-12T21:43:08.991Z,99.90
2019-05-12T21:48:15.247Z,99.90
2019-05-12T21:53:20.736Z,99.90
2019-05-12T21:58:25.900Z,99.90
2019-05-12T22:03:33.348Z,99.90
2019-05-12T22:08:38.332Z,99.90
2019-05-12T22:13:46.872Z,99.90
2019-05-12T22:18:56.051Z,99.90
2019-05-12T22:23:56.432Z,99.90
2019-05-12T22:29:01.283Z,99.90
2019-05-12T22:34:06.120Z,99.90
2019-05-12T22:39:11.023Z,99.90
2019-05-12T22:44:20.861Z,99.90
2019-05-12T22:49:23.634Z,99.90
2019-05-12T22:54:28.344Z,99.90
2019-05-12T22:59:40.585Z,99.90
2019-05-12T23:04:40.459Z,99.90
2019-05-12T23:09:45.712Z,99.90
2019-05-12T23:14:56.505Z,99.90
2019-05-12T23:19:57.028Z,99.90
2019-05-12T23:25:03.882Z,99.90
2019-05-12T23:30:11.248Z,99.90
2019-05-12T23:35:15.341Z,99.90
2019-05-12T23:40:20.301Z,99.90
2019-05-12T23:45:25.648Z,99.90
2019-05-12T23:50:30.494Z,99.90
2019-05-12T23:55:35.253Z,99.90
